Terminal Aerodrome Forecast
Issued by NWS

Current Version | Previous Version | Text Only | Print | Product List | Glossary Off
Versions: 1 2 3 4 5 6 7 8 9 10 11 12 13 14 15 16 17 18 19 20

000
FTUS41 KILN 280202 AAA
TAFLUK
TAF AMD
KLUK 280202Z 2802/2824 07003KT 6SM BR FEW050 BKN250
     FM280300 07003KT 3SM BR FEW045 BKN250
     FM280600 00000KT 1SM BR FEW020 SCT250
      TEMPO 2809/2812 1/2SM FG VV002
     FM281300 VRB03KT 5SM BR FEW012 SCT250
     FM281700 12006KT P6SM VCSH FEW025 BKN040=

USA.gov is the U.S. government's official web portal to all federal, state and local government web resources and services.